Time;durP1;ratioP1;P1;durP2;ratioP2;P2;SDS_P1;SDS_P2;PMS_P1;PMS_P2;Temp;Humidity;BMP_temperature;BMP_pressure;BME280_temperature;BME280_humidity;BME280_pressure;Samples;Min_cycle;Max_cycle;Signal;HPM_P1;HPM_P2
2021/07/07 00:00:16;;;;;;;2.50;2.30;;;21.20;99.90;;;;;;5067907;28;20482;-80
2021/07/07 00:02:43;;;;;;;2.23;2.13;;;21.00;99.90;;;;;;5067387;28;20495;-80
2021/07/07 00:05:12;;;;;;;2.03;1.87;;;21.00;99.90;;;;;;5068044;28;20507;-79
2021/07/07 00:07:39;;;;;;;4.30;2.77;;;20.90;99.90;;;;;;5067316;28;20442;-80
2021/07/07 00:10:08;;;;;;;1.93;1.63;;;20.60;99.90;;;;;;5067464;28;20451;-79
2021/07/07 00:12:35;;;;;;;4.70;2.30;;;20.80;99.90;;;;;;5066632;28;20466;-79
2021/07/07 00:15:05;;;;;;;2.10;1.70;;;20.70;99.90;;;;;;5067084;28;20446;-79
2021/07/07 00:17:31;;;;;;;2.20;2.10;;;20.50;99.90;;;;;;5070036;28;20465;-79
2021/07/07 00:19:58;;;;;;;2.40;2.20;;;20.50;99.90;;;;;;5065775;28;20482;-79
2021/07/07 00:22:24;;;;;;;2.30;2.10;;;20.30;99.90;;;;;;5069383;28;20477;-80
2021/07/07 00:24:51;;;;;;;2.10;2.00;;;20.30;99.90;;;;;;5068853;28;20484;-80
2021/07/07 00:27:17;;;;;;;4.10;2.50;;;20.20;99.90;;;;;;5063390;28;20903;-79
2021/07/07 00:29:44;;;;;;;2.23;1.93;;;20.10;99.90;;;;;;5066713;28;20454;-79
2021/07/07 00:32:14;;;;;;;2.60;2.40;;;20.10;99.90;;;;;;5062150;28;20445;-79
2021/07/07 00:34:40;;;;;;;3.37;2.37;;;20.10;99.90;;;;;;5059427;28;20523;-79
2021/07/07 00:37:07;;;;;;;3.37;2.57;;;20.00;99.90;;;;;;5058659;28;20460;-80
2021/07/07 00:39:33;;;;;;;6.73;2.33;;;20.00;99.90;;;;;;5058607;28;20445;-80
2021/07/07 00:42:02;;;;;;;2.63;2.43;;;20.10;99.90;;;;;;5059413;28;20502;-80
2021/07/07 00:44:28;;;;;;;2.70;2.20;;;19.90;99.90;;;;;;5059368;28;20507;-80
2021/07/07 00:46:55;;;;;;;3.23;3.03;;;19.80;99.90;;;;;;5058346;28;20860;-80
2021/07/07 00:49:23;;;;;;;2.20;2.10;;;19.80;99.90;;;;;;5058045;28;20481;-80
2021/07/07 00:51:49;;;;;;;4.07;2.80;;;19.80;99.90;;;;;;5058573;28;20468;-80
2021/07/07 00:54:16;;;;;;;3.00;2.70;;;19.90;99.90;;;;;;5057970;28;20991;-80
2021/07/07 00:56:43;;;;;;;4.30;2.63;;;19.80;99.90;;;;;;5058397;28;20824;-80
2021/07/07 00:59:11;;;;;;;2.43;2.13;;;19.70;99.90;;;;;;5058252;28;20460;-80
2021/07/07 01:01:40;;;;;;;2.63;2.53;;;19.70;99.90;;;;;;5057708;28;20484;-80
2021/07/07 01:04:06;;;;;;;3.90;2.47;;;19.70;99.90;;;;;;5058096;28;20465;-80
2021/07/07 01:06:34;;;;;;;4.60;4.13;;;19.70;99.90;;;;;;5058423;28;21001;-80
2021/07/07 01:09:01;;;;;;;2.53;2.30;;;19.70;99.90;;;;;;5057615;28;20453;-80
2021/07/07 01:11:27;;;;;;;3.10;2.43;;;19.60;99.90;;;;;;5057653;28;20490;-80
2021/07/07 01:13:54;;;;;;;2.43;2.23;;;19.60;99.90;;;;;;5056693;28;20503;-79
2021/07/07 01:16:21;;;;;;;2.23;2.00;;;19.50;99.90;;;;;;5057692;28;20453;-80
2021/07/07 01:18:48;;;;;;;2.40;2.27;;;19.50;99.90;;;;;;5057540;28;20476;-81
2021/07/07 01:21:16;;;;;;;3.40;2.70;;;19.50;99.90;;;;;;5057593;28;20849;-79
2021/07/07 01:23:44;;;;;;;2.47;2.17;;;19.50;99.90;;;;;;5058014;28;20472;-80
2021/07/07 01:26:10;;;;;;;2.60;2.40;;;19.40;99.90;;;;;;5057199;28;20477;-80
2021/07/07 01:28:37;;;;;;;4.30;2.50;;;19.40;99.90;;;;;;5057516;28;20448;-80
2021/07/07 01:31:04;;;;;;;4.27;2.73;;;19.40;99.90;;;;;;5056044;28;20467;-79
2021/07/07 01:33:31;;;;;;;2.57;2.37;;;19.40;99.90;;;;;;5058004;28;20470;-80
2021/07/07 01:35:57;;;;;;;2.60;2.40;;;19.40;99.90;;;;;;5061485;28;20442;-80
2021/07/07 01:38:24;;;;;;;3.30;3.00;;;19.30;99.90;;;;;;5062363;28;20449;-79
2021/07/07 01:40:55;;;;;;;3.60;3.30;;;19.30;99.90;;;;;;5060978;28;20515;-80
2021/07/07 01:43:22;;;;;;;3.33;2.93;;;19.20;99.90;;;;;;5061962;28;20500;-79
2021/07/07 01:45:49;;;;;;;2.40;2.20;;;19.20;99.90;;;;;;5062754;28;20950;-79
2021/07/07 01:48:15;;;;;;;3.87;2.97;;;19.20;99.90;;;;;;5066038;28;20444;-79
2021/07/07 01:50:42;;;;;;;3.10;2.90;;;19.20;99.90;;;;;;5064445;28;20456;-79
2021/07/07 01:53:09;;;;;;;3.27;2.87;;;19.10;99.90;;;;;;5067736;28;20475;-79
2021/07/07 01:55:36;;;;;;;3.30;2.57;;;19.20;99.90;;;;;;5067281;28;20453;-79
2021/07/07 01:58:04;;;;;;;3.37;3.13;;;19.10;99.90;;;;;;5066928;28;21017;-80
2021/07/07 02:00:33;;;;;;;7.43;2.83;;;19.10;99.90;;;;;;5066716;28;20480;-79
2021/07/07 02:03:00;;;;;;;3.13;2.90;;;19.00;99.90;;;;;;5066583;28;20454;-80
2021/07/07 02:05:29;;;;;;;3.17;2.97;;;19.00;99.90;;;;;;5072154;28;20453;-79
2021/07/07 02:07:56;;;;;;;5.40;3.47;;;18.90;99.90;;;;;;5067021;28;20455;-79
2021/07/07 02:10:23;;;;;;;3.47;2.90;;;18.90;99.90;;;;;;5071584;28;20469;-80
2021/07/07 02:12:50;;;;;;;3.10;2.90;;;18.90;99.90;;;;;;5070769;28;20526;-79
2021/07/07 02:15:20;;;;;;;3.40;3.10;;;18.90;99.90;;;;;;5065258;28;20444;-79
2021/07/07 02:17:48;;;;;;;4.97;2.90;;;18.80;99.90;;;;;;5066781;28;20436;-80
2021/07/07 02:20:16;;;;;;;3.40;3.10;;;18.80;99.90;;;;;;5067789;28;20449;-79
2021/07/07 02:22:43;;;;;;;10.40;3.37;;;18.30;99.90;;;;;;5067866;28;20457;-79
2021/07/07 02:25:12;;;;;;;7.03;3.60;;;18.80;99.90;;;;;;5065275;28;20455;-80
2021/07/07 02:27:38;;;;;;;4.00;3.03;;;18.70;99.90;;;;;;5062744;28;20452;-80
2021/07/07 02:30:10;;;;;;;3.57;3.23;;;18.80;99.90;;;;;;5063991;28;20481;-79
2021/07/07 02:32:38;;;;;;;4.53;3.47;;;18.70;99.90;;;;;;5063119;28;20474;-79
2021/07/07 02:35:05;;;;;;;5.10;3.80;;;18.70;99.90;;;;;;5061812;28;20465;-79
2021/07/07 02:37:32;;;;;;;3.80;3.50;;;18.60;99.90;;;;;;5063042;28;20479;-80
2021/07/07 02:39:58;;;;;;;4.43;3.60;;;18.70;99.90;;;;;;5062280;28;20472;-80
2021/07/07 02:42:25;;;;;;;4.43;3.70;;;18.70;99.90;;;;;;5061876;28;20501;-80
2021/07/07 02:44:53;;;;;;;5.67;3.50;;;18.60;99.90;;;;;;5062350;28;20479;-80
2021/07/07 02:47:19;;;;;;;4.20;3.73;;;18.70;99.90;;;;;;5062197;28;20451;-80
2021/07/07 02:49:47;;;;;;;3.93;3.63;;;18.50;99.90;;;;;;5061120;28;20823;-80
2021/07/07 02:52:14;;;;;;;4.40;3.33;;;18.50;99.90;;;;;;5060417;28;21008;-79
2021/07/07 02:54:40;;;;;;;6.67;3.40;;;18.60;99.90;;;;;;5060925;28;20474;-79
2021/07/07 02:57:07;;;;;;;3.50;3.23;;;18.50;99.90;;;;;;5060918;28;20446;-80
2021/07/07 02:59:34;;;;;;;4.40;2.93;;;18.40;99.90;;;;;;5061353;28;20468;-80
2021/07/07 03:02:00;;;;;;;4.13;3.33;;;18.50;99.90;;;;;;5060584;28;20478;-79
2021/07/07 03:04:27;;;;;;;5.57;4.60;;;18.30;99.90;;;;;;5060825;28;20869;-79
2021/07/07 03:06:55;;;;;;;4.33;3.83;;;18.30;99.90;;;;;;5065223;28;20454;-80
2021/07/07 03:09:21;;;;;;;3.77;3.43;;;18.10;99.90;;;;;;5068399;28;20489;-79
2021/07/07 03:11:48;;;;;;;4.80;3.97;;;18.20;99.90;;;;;;5067249;28;20478;-80
2021/07/07 03:14:14;;;;;;;4.10;3.80;;;18.20;99.90;;;;;;5067651;28;20499;-80
2021/07/07 03:16:41;;;;;;;4.93;3.60;;;18.10;99.90;;;;;;5068329;28;20812;-80
2021/07/07 03:19:07;;;;;;;5.10;4.47;;;18.20;99.90;;;;;;5064690;28;20450;-80
2021/07/07 03:21:34;;;;;;;5.40;4.60;;;18.10;99.90;;;;;;5062039;28;20511;-80
2021/07/07 03:24:02;;;;;;;4.77;4.37;;;18.10;99.90;;;;;;5058609;28;20475;-81
2021/07/07 03:26:28;;;;;;;5.63;5.13;;;18.10;99.90;;;;;;5059580;28;20489;-80
2021/07/07 03:28:55;;;;;;;4.57;4.13;;;18.10;99.90;;;;;;5060253;28;20794;-81
2021/07/07 03:31:21;;;;;;;4.70;4.30;;;18.10;99.90;;;;;;5059829;28;20450;-80
2021/07/07 03:33:48;;;;;;;4.40;3.97;;;18.00;99.90;;;;;;5059829;28;20499;-81
2021/07/07 03:36:15;;;;;;;4.60;4.20;;;18.00;99.90;;;;;;5060894;28;20445;-81
2021/07/07 03:38:41;;;;;;;5.23;4.23;;;18.10;99.90;;;;;;5060898;28;20980;-80
2021/07/07 03:41:09;;;;;;;5.53;4.63;;;18.10;99.90;;;;;;5061688;28;20617;-80
2021/07/07 03:43:36;;;;;;;6.00;4.17;;;18.10;99.90;;;;;;5059012;28;20468;-80
2021/07/07 03:46:02;;;;;;;8.20;4.40;;;18.20;99.90;;;;;;5059159;28;20502;-80
2021/07/07 03:48:29;;;;;;;4.47;4.07;;;18.10;99.90;;;;;;5059209;28;20444;-80
2021/07/07 03:50:56;;;;;;;4.83;4.43;;;18.20;99.90;;;;;;5059035;28;20443;-81
2021/07/07 03:53:22;;;;;;;4.17;3.87;;;18.10;99.90;;;;;;5059069;28;20516;-80
2021/07/07 03:55:49;;;;;;;4.60;4.20;;;18.00;99.90;;;;;;5057804;28;20450;-79
2021/07/07 03:58:17;;;;;;;5.03;4.63;;;17.60;99.90;;;;;;5061506;28;20451;-80
2021/07/07 04:00:44;;;;;;;7.53;4.37;;;18.00;99.90;;;;;;5062011;28;20450;-79
2021/07/07 04:03:11;;;;;;;3.87;3.57;;;18.10;99.90;;;;;;5062308;28;20463;-80
2021/07/07 04:05:38;;;;;;;3.87;3.57;;;18.00;99.90;;;;;;5060122;28;20824;-81
2021/07/07 04:08:05;;;;;;;5.50;4.03;;;18.10;99.90;;;;;;5059236;28;20496;-79
2021/07/07 04:10:31;;;;;;;7.80;4.37;;;18.10;99.90;;;;;;5059023;28;20446;-80
2021/07/07 04:12:58;;;;;;;4.97;4.17;;;17.90;99.90;;;;;;5058941;28;20455;-79
2021/07/07 04:15:26;;;;;;;5.40;4.90;;;17.90;99.90;;;;;;5056329;28;20962;-80
2021/07/07 04:17:52;;;;;;;7.57;4.77;;;17.90;99.90;;;;;;5058339;28;20869;-81
2021/07/07 04:20:20;;;;;;;5.90;5.40;;;17.90;99.90;;;;;;5058425;28;20479;-80
2021/07/07 04:22:47;;;;;;;5.53;5.00;;;17.90;99.90;;;;;;5057889;28;20491;-80
2021/07/07 04:25:15;;;;;;;9.83;5.43;;;17.90;99.90;;;;;;5058448;28;20447;-80
2021/07/07 04:27:42;;;;;;;7.10;5.00;;;17.90;99.90;;;;;;5058574;28;20522;-80
2021/07/07 04:30:11;;;;;;;5.50;5.00;;;18.00;99.90;;;;;;5058243;28;20944;-80
2021/07/07 04:32:39;;;;;;;4.83;4.40;;;17.90;99.90;;;;;;5057668;28;20470;-80
2021/07/07 04:35:09;;;;;;;4.67;4.27;;;17.80;99.90;;;;;;5058484;28;20458;-80
2021/07/07 04:37:36;;;;;;;4.73;4.40;;;17.70;99.90;;;;;;5057707;28;20450;-80
2021/07/07 04:40:03;;;;;;;9.57;4.63;;;17.80;99.90;;;;;;5058441;28;20777;-82
2021/07/07 04:42:30;;;;;;;6.47;4.57;;;17.90;99.90;;;;;;5057479;28;20867;-80
2021/07/07 04:44:56;;;;;;;8.57;5.33;;;17.80;99.90;;;;;;5058052;28;20500;-80
2021/07/07 04:47:23;;;;;;;6.87;5.10;;;17.90;99.90;;;;;;5057958;28;20454;-80
2021/07/07 04:49:51;;;;;;;7.43;5.17;;;17.80;99.90;;;;;;5058829;28;20461;-81
2021/07/07 04:52:17;;;;;;;7.03;4.97;;;17.90;99.90;;;;;;5057818;28;20447;-80
2021/07/07 04:54:44;;;;;;;8.20;5.00;;;17.90;99.90;;;;;;5057570;28;21017;-80
2021/07/07 04:57:11;;;;;;;5.53;5.03;;;17.90;99.90;;;;;;5057489;28;20442;-81
2021/07/07 04:59:37;;;;;;;5.87;5.37;;;17.80;99.90;;;;;;5057946;28;20475;-81
2021/07/07 05:02:04;;;;;;;6.70;6.03;;;17.80;99.90;;;;;;5057781;28;20987;-79
2021/07/07 05:04:31;;;;;;;6.97;6.37;;;17.80;99.90;;;;;;5057414;28;20878;-80
2021/07/07 05:06:59;;;;;;;6.50;6.00;;;18.00;99.90;;;;;;5058141;28;20503;-80
2021/07/07 05:09:25;;;;;;;6.97;5.30;;;17.90;99.90;;;;;;5058035;28;20447;-80
2021/07/07 05:11:52;;;;;;;7.23;5.10;;;17.90;99.90;;;;;;5057952;28;20519;-81
2021/07/07 05:14:19;;;;;;;5.97;5.30;;;18.00;99.90;;;;;;5058358;28;20497;-80
2021/07/07 05:16:46;;;;;;;5.93;5.37;;;18.00;99.90;;;;;;5056528;28;20452;-80
2021/07/07 05:19:13;;;;;;;6.70;5.33;;;18.00;99.90;;;;;;5057178;28;20494;-80
2021/07/07 05:21:39;;;;;;;8.47;6.80;;;17.90;99.90;;;;;;5056837;28;20573;-80
2021/07/07 05:24:07;;;;;;;7.43;6.83;;;18.10;99.90;;;;;;5057221;28;20557;-81
2021/07/07 05:26:35;;;;;;;11.17;6.40;;;18.10;99.90;;;;;;5057156;28;20484;-80
2021/07/07 05:29:02;;;;;;;6.97;6.30;;;18.10;99.90;;;;;;5057282;28;20890;-78
2021/07/07 05:31:28;;;;;;;13.70;7.57;;;18.00;99.90;;;;;;5057265;28;20446;-79
2021/07/07 05:33:59;;;;;;;7.40;6.40;;;17.90;99.90;;;;;;5057389;28;20514;-80
2021/07/07 05:36:25;;;;;;;8.37;6.30;;;17.50;99.90;;;;;;5057570;28;20501;-81
2021/07/07 05:38:52;;;;;;;9.93;7.90;;;18.00;99.90;;;;;;5057628;28;20457;-80
2021/07/07 05:41:20;;;;;;;9.03;8.13;;;18.00;99.90;;;;;;5057637;28;20460;-81
2021/07/07 05:43:47;;;;;;;7.23;6.57;;;17.90;99.90;;;;;;5056748;28;20509;-81
2021/07/07 05:46:13;;;;;;;9.30;8.30;;;18.00;99.90;;;;;;5057032;28;20458;-81
2021/07/07 05:48:40;;;;;;;9.20;7.70;;;17.90;99.90;;;;;;5056625;28;20489;-79
2021/07/07 05:51:07;;;;;;;15.83;7.50;;;18.00;99.90;;;;;;5056678;28;20480;-79
2021/07/07 05:53:33;;;;;;;8.47;7.60;;;17.90;99.90;;;;;;5057334;28;20488;-80
2021/07/07 05:56:00;;;;;;;10.80;8.50;;;17.90;99.90;;;;;;5058208;28;20450;-80
2021/07/07 05:58:28;;;;;;;11.57;9.03;;;17.90;99.90;;;;;;5057704;28;20445;-80
2021/07/07 06:00:54;;;;;;;13.77;8.67;;;17.80;99.90;;;;;;5056905;28;20485;-80
2021/07/07 06:03:21;;;;;;;9.57;8.50;;;17.90;99.90;;;;;;5059540;28;20489;-79
2021/07/07 06:05:47;;;;;;;7.37;6.63;;;18.00;99.90;;;;;;5068164;28;20450;-81
2021/07/07 06:08:14;;;;;;;8.30;7.50;;;17.70;99.90;;;;;;5054862;28;20449;-80
2021/07/07 06:10:43;;;;;;;7.47;6.87;;;17.80;99.90;;;;;;5055542;28;20454;-80
2021/07/07 06:13:09;;;;;;;7.30;6.60;;;17.80;99.90;;;;;;5055225;28;20980;-80
2021/07/07 06:15:37;;;;;;;7.43;6.60;;;17.70;99.90;;;;;;5056391;28;20493;-80
2021/07/07 06:18:04;;;;;;;6.43;5.73;;;17.70;99.90;;;;;;5056057;28;20450;-80
2021/07/07 06:20:31;;;;;;;9.60;5.80;;;17.70;99.90;;;;;;5056558;28;20453;-80
2021/07/07 06:22:58;;;;;;;7.40;6.70;;;17.50;99.90;;;;;;5056210;28;20515;-79
2021/07/07 06:25:24;;;;;;;14.80;6.77;;;17.60;99.90;;;;;;5056576;28;20471;-80
2021/07/07 06:27:51;;;;;;;9.00;6.27;;;18.00;99.90;;;;;;5056836;28;20471;-79
2021/07/07 06:30:19;;;;;;;8.20;7.40;;;17.70;99.90;;;;;;5056548;28;20523;-81
2021/07/07 06:32:49;;;;;;;8.27;6.80;;;17.70;99.90;;;;;;5055883;28;20548;-79
2021/07/07 06:35:16;;;;;;;7.73;6.90;;;17.70;99.90;;;;;;5056812;28;20441;-80
2021/07/07 06:37:44;;;;;;;10.47;7.47;;;17.80;99.90;;;;;;5057294;28;20454;-81
2021/07/07 06:40:12;;;;;;;8.47;7.53;;;17.80;99.90;;;;;;5061124;28;20506;-80
2021/07/07 06:42:38;;;;;;;6.40;5.77;;;17.80;99.90;;;;;;5063746;28;20528;-80
2021/07/07 06:45:07;;;;;;;6.20;5.33;;;17.50;99.90;;;;;;5063554;28;20484;-80
2021/07/07 06:47:34;;;;;;;6.50;5.90;;;17.60;99.90;;;;;;5061477;28;20857;-80
2021/07/07 06:50:03;;;;;;;6.90;5.60;;;17.50;99.90;;;;;;5060188;28;20536;-80
2021/07/07 06:52:29;;;;;;;7.80;6.00;;;17.60;99.90;;;;;;5060246;28;20462;-79
2021/07/07 06:54:56;;;;;;;6.10;5.53;;;17.50;99.90;;;;;;5060394;28;20449;-79
2021/07/07 06:57:22;;;;;;;6.77;6.07;;;17.50;99.90;;;;;;5059337;28;20458;-80
2021/07/07 06:59:49;;;;;;;7.63;6.93;;;17.70;99.90;;;;;;5059609;28;20454;-80
2021/07/07 07:02:16;;;;;;;10.83;6.93;;;17.70;99.90;;;;;;5059563;28;20486;-80
2021/07/07 07:04:42;;;;;;;9.87;7.27;;;17.70;99.90;;;;;;5059491;28;20443;-80
2021/07/07 07:07:10;;;;;;;11.53;8.40;;;17.50;99.90;;;;;;5059968;28;20873;-80
2021/07/07 07:09:37;;;;;;;8.70;7.33;;;17.70;99.90;;;;;;5060595;28;20484;-81
2021/07/07 07:12:04;;;;;;;11.00;7.87;;;17.80;99.90;;;;;;5059843;28;20448;-80
2021/07/07 07:14:30;;;;;;;9.20;7.43;;;17.80;99.90;;;;;;5061544;28;20449;-80
2021/07/07 07:16:57;;;;;;;7.37;6.23;;;17.80;99.90;;;;;;5060255;28;20508;-79
2021/07/07 07:19:24;;;;;;;9.40;8.50;;;17.70;99.90;;;;;;5058909;28;20519;-80
2021/07/07 07:21:50;;;;;;;10.20;8.20;;;17.40;99.90;;;;;;5058831;28;20484;-80
2021/07/07 07:24:18;;;;;;;8.10;7.50;;;17.60;99.90;;;;;;5059173;28;20508;-79
2021/07/07 07:26:45;;;;;;;10.73;8.90;;;17.60;99.90;;;;;;5058714;28;20485;-78
2021/07/07 07:29:11;;;;;;;8.00;6.77;;;17.80;99.90;;;;;;5058966;28;20486;-80
2021/07/07 07:31:38;;;;;;;7.27;6.57;;;17.70;99.90;;;;;;5061295;28;20446;-79
2021/07/07 07:34:05;;;;;;;10.27;7.40;;;17.70;99.90;;;;;;5060012;28;20512;-78
2021/07/07 07:36:31;;;;;;;11.03;7.17;;;17.60;99.90;;;;;;5064970;28;20442;-78
2021/07/07 07:39:00;;;;;;;11.57;8.83;;;17.70;99.90;;;;;;5062361;28;20447;-79
2021/07/07 07:41:33;;;;;;;10.07;8.37;;;17.70;99.90;;;;;;5062660;28;20450;-80
2021/07/07 07:44:00;;;;;;;23.50;20.57;;;17.40;99.90;;;;;;5062695;28;20486;-79
2021/07/07 07:46:28;;;;;;;26.63;19.73;;;17.60;99.90;;;;;;5061733;28;20868;-80
2021/07/07 07:48:56;;;;;;;14.10;12.27;;;17.60;99.90;;;;;;5060432;28;20471;-80
2021/07/07 07:51:23;;;;;;;18.90;13.20;;;17.50;99.90;;;;;;5061044;28;20472;-80
2021/07/07 07:53:50;;;;;;;14.03;11.93;;;17.70;99.90;;;;;;5058177;28;20474;-79
2021/07/07 07:56:17;;;;;;;17.37;10.57;;;17.70;99.90;;;;;;5057886;28;20524;-81
2021/07/07 07:58:45;;;;;;;9.20;6.80;;;17.60;99.90;;;;;;5059631;28;20446;-81
2021/07/07 08:01:13;;;;;;;10.13;9.23;;;17.70;99.90;;;;;;5058441;28;20959;-81
2021/07/07 08:03:40;;;;;;;8.83;7.97;;;17.80;99.90;;;;;;5058964;28;20493;-81
2021/07/07 08:06:07;;;;;;;7.07;6.47;;;17.50;99.90;;;;;;5059299;28;20455;-81
2021/07/07 08:08:36;;;;;;;6.03;5.53;;;17.60;99.90;;;;;;5058791;28;20453;-82
2021/07/07 08:11:03;;;;;;;7.83;6.10;;;17.50;99.90;;;;;;5059038;28;20482;-80
2021/07/07 08:13:30;;;;;;;6.23;5.10;;;17.30;99.90;;;;;;5058135;28;20469;-80
2021/07/07 08:16:00;;;;;;;7.70;6.67;;;17.50;99.90;;;;;;5056917;28;20944;-79
2021/07/07 08:18:27;;;;;;;7.13;6.00;;;17.30;99.90;;;;;;5058100;28;20434;-80
2021/07/07 08:20:54;;;;;;;8.00;7.40;;;17.40;99.90;;;;;;5057751;28;20454;-80
2021/07/07 08:23:20;;;;;;;7.63;6.93;;;17.40;99.90;;;;;;5058536;28;20543;-81
2021/07/07 08:25:47;;;;;;;6.77;6.13;;;17.50;99.90;;;;;;5057801;28;20443;-81
2021/07/07 08:28:14;;;;;;;7.77;6.63;;;17.50;99.90;;;;;;5058343;28;21008;-80
2021/07/07 08:30:41;;;;;;;7.80;6.10;;;17.50;99.90;;;;;;5058590;28;20479;-81
2021/07/07 08:33:09;;;;;;;6.70;6.10;;;17.40;99.90;;;;;;5057750;28;20516;-82
2021/07/07 08:35:38;;;;;;;4.13;3.27;;;17.30;99.90;;;;;;5056691;28;20457;-79
2021/07/07 08:38:05;;;;;;;7.80;5.40;;;17.20;99.90;;;;;;5057729;28;20508;-79
2021/07/07 08:40:31;;;;;;;5.93;5.27;;;17.30;99.90;;;;;;5056500;28;20455;-79
2021/07/07 08:42:58;;;;;;;5.20;4.70;;;17.20;99.90;;;;;;5057562;28;20517;-79
2021/07/07 08:45:25;;;;;;;6.90;6.00;;;17.20;99.90;;;;;;5059515;28;20453;-80
2021/07/07 08:47:51;;;;;;;7.10;6.60;;;17.30;99.90;;;;;;5059240;28;20450;-79
2021/07/07 08:50:22;;;;;;;9.57;7.80;;;17.80;99.90;;;;;;5057891;28;20507;-79
2021/07/07 08:52:49;;;;;;;8.03;6.43;;;17.50;99.90;;;;;;5058449;28;20461;-81
2021/07/07 08:55:17;;;;;;;6.63;6.13;;;17.10;99.90;;;;;;5058696;28;20873;-80
2021/07/07 08:57:44;;;;;;;6.40;5.90;;;17.10;99.90;;;;;;5059232;28;20456;-80
2021/07/07 09:00:16;;;;;;;9.13;7.17;;;17.50;99.90;;;;;;5056656;28;20451;-80
2021/07/07 09:02:54;;;;;;;8.27;6.27;;;17.50;99.90;;;;;;5057023;28;20556;-79
2021/07/07 09:05:22;;;;;;;7.03;5.90;;;17.50;99.90;;;;;;5059955;28;20986;-82
2021/07/07 09:07:50;;;;;;;7.30;6.70;;;17.40;99.90;;;;;;5063201;28;20452;-82
2021/07/07 09:10:18;;;;;;;6.63;5.90;;;17.50;99.90;;;;;;5061078;28;20503;-82
2021/07/07 09:12:45;;;;;;;8.87;6.30;;;17.50;99.90;;;;;;5070045;28;20468;-81
2021/07/07 09:15:14;;;;;;;11.70;5.37;;;17.50;99.90;;;;;;5064055;28;20499;-82
2021/07/07 09:17:43;;;;;;;8.77;5.83;;;17.30;99.90;;;;;;5060514;28;20445;-82
2021/07/07 09:20:17;;;;;;;5.37;4.83;;;17.40;99.90;;;;;;5061317;28;20471;-82
2021/07/07 09:22:45;;;;;;;7.43;6.70;;;17.50;99.90;;;;;;5061779;28;20489;-82
2021/07/07 09:25:14;;;;;;;7.40;6.80;;;17.60;99.90;;;;;;5061472;28;20445;-82
2021/07/07 09:27:41;;;;;;;9.37;8.33;;;17.70;99.90;;;;;;5061805;28;20805;-81
2021/07/07 09:30:10;;;;;;;7.57;6.80;;;17.80;99.90;;;;;;5059232;28;20472;-83
2021/07/07 09:32:44;;;;;;;7.60;6.90;;;17.80;99.90;;;;;;5061843;28;20470;-80
2021/07/07 09:35:18;;;;;;;7.73;6.93;;;17.40;99.90;;;;;;5057632;28;20460;-80
2021/07/07 09:37:51;;;;;;;6.40;5.77;;;17.70;99.90;;;;;;5056840;28;20973;-80
2021/07/07 09:40:18;;;;;;;6.00;4.73;;;17.60;99.90;;;;;;5056005;28;20434;-81
2021/07/07 09:42:46;;;;;;;4.97;4.43;;;17.70;99.90;;;;;;5057213;28;20486;-80
2021/07/07 09:45:16;;;;;;;7.67;5.73;;;17.50;99.90;;;;;;5058554;28;20440;-80
2021/07/07 09:47:43;;;;;;;7.43;6.57;;;17.70;99.90;;;;;;5058111;28;20457;-80
2021/07/07 09:50:11;;;;;;;5.83;4.80;;;17.70;99.90;;;;;;5058074;28;20490;-81
2021/07/07 09:52:38;;;;;;;7.93;6.20;;;17.70;99.90;;;;;;5057888;28;20528;-80
2021/07/07 09:55:09;;;;;;;7.03;4.47;;;17.60;99.90;;;;;;5058670;28;20824;-80
2021/07/07 09:57:44;;;;;;;8.23;6.03;;;17.70;99.90;;;;;;5058367;28;20446;-80
2021/07/07 10:00:13;;;;;;;7.63;4.30;;;17.70;99.90;;;;;;5058813;28;20434;-81
2021/07/07 10:02:41;;;;;;;4.90;3.30;;;17.70;99.90;;;;;;5060046;28;20477;-81
2021/07/07 10:05:11;;;;;;;3.90;3.27;;;17.60;99.90;;;;;;5064625;28;20447;-81
2021/07/07 10:07:38;;;;;;;4.30;3.90;;;17.60;99.90;;;;;;5067652;28;20813;-81
2021/07/07 10:10:14;;;;;;;7.93;5.07;;;17.70;99.90;;;;;;5065126;28;20900;-80
2021/07/07 10:12:46;;;;;;;6.30;5.33;;;17.70;99.90;;;;;;5069414;28;20459;-80
2021/07/07 10:15:14;;;;;;;7.70;5.30;;;17.70;99.90;;;;;;5070830;28;20453;-80
2021/07/07 10:17:44;;;;;;;6.97;6.37;;;17.70;99.90;;;;;;5068668;28;20445;-81
2021/07/07 10:20:14;;;;;;;7.03;6.33;;;17.80;99.90;;;;;;5066740;28;20422;-83
2021/07/07 10:22:42;;;;;;;6.80;6.10;;;17.90;99.90;;;;;;5072115;28;20457;-82
2021/07/07 10:25:15;;;;;;;8.23;6.13;;;17.80;99.90;;;;;;5075625;28;20452;-82
2021/07/07 10:27:43;;;;;;;6.73;6.13;;;17.90;99.90;;;;;;5076970;28;20415;-83
2021/07/07 10:30:10;;;;;;;5.67;4.80;;;18.00;99.90;;;;;;5075888;28;20493;-84
2021/07/07 10:32:37;;;;;;;6.00;5.40;;;17.90;99.90;;;;;;5075780;28;20467;-83
2021/07/07 10:35:10;;;;;;;6.60;5.27;;;17.90;99.90;;;;;;5074539;28;20433;-84
2021/07/07 10:37:38;;;;;;;4.27;3.97;;;17.90;99.90;;;;;;5073323;28;20434;-84
2021/07/07 10:40:28;;;;;;;4.50;4.13;;;17.80;99.90;;;;;;5073994;28;20533;-84
2021/07/07 10:42:55;;;;;;;5.20;4.80;;;18.00;99.90;;;;;;5063938;28;20569;-83
2021/07/07 10:45:32;;;;;;;4.90;4.60;;;17.90;99.90;;;;;;5067936;28;20960;-83
2021/07/07 10:48:24;;;;;;;6.50;4.90;;;17.90;99.90;;;;;;5065404;28;20448;-83
2021/07/07 10:50:51;;;;;;;3.93;3.63;;;18.10;99.90;;;;;;5064157;28;20498;-83
2021/07/07 10:53:23;;;;;;;10.13;4.50;;;18.10;99.90;;;;;;5063328;28;20465;-82
2021/07/07 10:55:52;;;;;;;4.83;4.00;;;17.90;99.90;;;;;;5061126;28;20442;-83
2021/07/07 10:58:26;;;;;;;3.87;3.57;;;17.80;99.90;;;;;;5062048;28;20487;-84
2021/07/07 11:00:53;;;;;;;3.43;3.23;;;18.00;99.90;;;;;;5060859;28;20450;-84
2021/07/07 11:03:32;;;;;;;3.60;3.30;;;17.90;99.90;;;;;;5060060;28;20524;-84
2021/07/07 11:06:01;;;;;;;3.97;3.67;;;17.90;99.90;;;;;;5060424;28;20460;-84
2021/07/07 11:08:29;;;;;;;3.93;3.63;;;17.90;99.90;;;;;;5064498;28;20461;-83
2021/07/07 11:10:59;;;;;;;4.73;4.43;;;17.90;99.90;;;;;;5064350;28;20540;-83
2021/07/07 11:13:27;;;;;;;3.93;3.50;;;18.00;99.90;;;;;;5065032;28;20465;-83
2021/07/07 11:15:55;;;;;;;4.70;4.30;;;18.00;99.90;;;;;;5064082;28;20455;-83
2021/07/07 11:18:24;;;;;;;10.20;4.73;;;18.10;99.90;;;;;;5065352;28;20463;-84
2021/07/07 11:21:07;;;;;;;4.43;3.93;;;18.20;99.90;;;;;;5063477;28;20887;-83
2021/07/07 11:23:35;;;;;;;4.10;3.80;;;18.20;99.90;;;;;;5057020;28;20487;-80
2021/07/07 11:26:03;;;;;;;5.87;3.83;;;18.20;99.90;;;;;;5059582;28;20447;-80
2021/07/07 11:28:30;;;;;;;4.90;4.13;;;18.20;99.90;;;;;;5060739;28;20452;-80
2021/07/07 11:30:58;;;;;;;3.57;3.27;;;18.30;99.90;;;;;;5060339;28;20502;-80
2021/07/07 11:33:56;;;;;;;3.90;3.57;;;18.30;99.90;;;;;;5060595;28;20482;-81
2021/07/07 11:36:26;;;;;;;4.47;4.13;;;18.20;99.90;;;;;;5053636;28;20976;-81
2021/07/07 11:39:04;;;;;;;6.53;4.53;;;18.10;99.90;;;;;;5062142;28;20845;-81
2021/07/07 11:41:32;;;;;;;6.47;4.63;;;18.30;99.90;;;;;;5062132;28;20482;-80
2021/07/07 11:43:59;;;;;;;4.50;4.10;;;18.20;99.90;;;;;;5060151;28;20492;-80
2021/07/07 11:46:30;;;;;;;5.13;4.63;;;18.30;99.90;;;;;;5060404;28;20467;-81
2021/07/07 11:49:06;;;;;;;7.37;5.50;;;18.30;99.90;;;;;;5060335;28;20489;-80
2021/07/07 11:51:35;;;;;;;5.50;4.40;;;18.30;99.90;;;;;;5060531;28;20432;-81
2021/07/07 11:54:02;;;;;;;5.70;3.73;;;18.40;99.90;;;;;;5060235;28;20485;-81
2021/07/07 11:56:35;;;;;;;3.73;3.43;;;18.30;99.90;;;;;;5059737;28;20480;-81
2021/07/07 11:59:13;;;;;;;4.27;3.90;;;18.30;99.90;;;;;;5060094;28;20530;-81
2021/07/07 12:01:43;;;;;;;4.43;4.10;;;18.40;99.90;;;;;;5064005;28;20469;-80
2021/07/07 12:04:12;;;;;;;5.33;4.23;;;18.50;99.90;;;;;;5060818;28;20487;-79
2021/07/07 12:06:40;;;;;;;5.77;5.17;;;18.50;99.90;;;;;;5054866;28;20456;-78
2021/07/07 12:09:16;;;;;;;3.83;3.13;;;18.70;99.90;;;;;;5054968;28;20528;-79
2021/07/07 12:11:48;;;;;;;2.93;2.63;;;18.80;99.90;;;;;;5055078;28;20840;-79
2021/07/07 12:14:16;;;;;;;2.90;2.60;;;18.90;99.90;;;;;;5056489;28;20471;-82
2021/07/07 12:16:45;;;;;;;4.63;3.93;;;19.00;99.90;;;;;;5061421;28;20450;-81
2021/07/07 12:19:13;;;;;;;4.50;3.73;;;19.40;99.90;;;;;;5062460;28;20483;-80
2021/07/07 12:21:43;;;;;;;4.87;4.47;;;19.50;99.90;;;;;;5062038;28;20449;-81
2021/07/07 12:24:12;;;;;;;3.97;3.57;;;19.80;99.90;;;;;;5061248;28;21100;-80
2021/07/07 12:26:41;;;;;;;2.40;2.20;;;20.00;99.90;;;;;;5066045;28;20464;-81
2021/07/07 12:29:12;;;;;;;3.37;2.63;;;19.90;99.90;;;;;;5071425;28;20462;-82
2021/07/07 12:31:41;;;;;;;3.50;3.30;;;19.80;99.90;;;;;;5065260;28;20444;-80
2021/07/07 12:34:09;;;;;;;7.63;3.03;;;20.00;99.90;;;;;;5061641;28;20474;-81
2021/07/07 12:36:38;;;;;;;4.00;3.40;;;20.00;99.90;;;;;;5060257;28;20952;-81
2021/07/07 12:39:16;;;;;;;2.90;2.60;;;20.10;99.90;;;;;;5061215;28;20449;-81
2021/07/07 12:41:47;;;;;;;2.20;2.00;;;20.20;99.90;;;;;;5061949;28;20458;-81
2021/07/07 12:44:15;;;;;;;3.87;2.00;;;20.10;99.90;;;;;;5069406;28;20496;-80
2021/07/07 12:46:55;;;;;;;3.47;2.90;;;20.30;99.90;;;;;;5073466;28;20518;-81
2021/07/07 12:49:37;;;;;;;2.50;2.30;;;20.30;99.90;;;;;;5066723;28;20433;-82